Time;durP1;ratioP1;P1;durP2;ratioP2;P2;SDS_P1;SDS_P2;PMS_P1;PMS_P2;Temp;Humidity;BMP_temperature;BMP_pressure;BME280_temperature;BME280_humidity;BME280_pressure;Samples;Min_cycle;Max_cycle;Signal;HPM_P1;HPM_P2
2023/11/17 00:03:39;;;;;;;1999.90;999.90;;;;;;;11.96;65.06;101473.34;10387445;28;20050;-70
2023/11/17 00:08:42;;;;;;;1999.90;999.90;;;;;;;12.47;63.96;101470.63;10387664;28;20054;-70
2023/11/17 00:13:44;;;;;;;1999.90;999.90;;;;;;;12.73;62.09;101482.34;10387151;28;20046;-71
2023/11/17 00:18:47;;;;;;;1999.90;999.90;;;;;;;12.11;64.82;101496.16;10386712;28;20056;-71
2023/11/17 00:23:52;;;;;;;1999.90;999.90;;;;;;;12.63;62.42;101497.75;10385807;28;20505;-70
2023/11/17 00:28:54;;;;;;;1999.90;999.90;;;;;;;12.56;63.38;101504.28;10385501;28;20042;-70
2023/11/17 00:33:57;;;;;;;1999.90;999.90;;;;;;;12.22;62.92;101506.06;10386801;28;20052;-71
2023/11/17 00:39:01;;;;;;;1999.90;999.90;;;;;;;12.08;63.66;101505.03;10386577;28;20123;-70
2023/11/17 00:44:04;;;;;;;1999.90;999.90;;;;;;;11.75;64.77;101504.13;10364206;28;20056;-71
2023/11/17 00:49:06;;;;;;;1999.90;999.90;;;;;;;12.27;63.52;101511.94;10378796;28;20053;-71
2023/11/17 00:54:09;;;;;;;1999.90;999.90;;;;;;;12.23;63.50;101528.78;10380365;28;20054;-70
2023/11/17 00:59:13;;;;;;;1999.90;999.90;;;;;;;12.12;63.79;101526.75;10362213;28;20081;-70
2023/11/17 01:04:16;;;;;;;1999.90;999.90;;;;;;;12.00;63.23;101527.34;10378154;28;20480;-71
2023/11/17 01:09:18;;;;;;;1999.90;999.90;;;;;;;11.89;64.06;101535.75;10379131;28;20492;-71
2023/11/17 01:14:21;;;;;;;1999.90;999.90;;;;;;;11.48;64.94;101541.28;10378821;28;20053;-71
2023/11/17 01:19:25;;;;;;;1999.90;999.90;;;;;;;12.28;61.43;101539.91;10377715;28;20125;-71
2023/11/17 01:24:28;;;;;;;1999.90;999.90;;;;;;;11.68;64.28;101551.66;10378318;28;20080;-70
2023/11/17 01:29:34;;;;;;;1999.90;999.90;;;;;;;12.45;61.62;101547.72;10378334;28;20569;-70
2023/11/17 01:34:37;;;;;;;1999.90;999.90;;;;;;;12.21;62.69;101551.66;10377060;28;20071;-70
2023/11/17 01:39:39;;;;;;;1999.90;999.90;;;;;;;11.73;62.35;101569.78;10377957;28;20096;-70
2023/11/17 01:44:43;;;;;;;1999.90;999.90;;;;;;;11.77;63.53;101558.22;10360541;28;20060;-70
2023/11/17 01:49:46;;;;;;;1999.90;999.90;;;;;;;11.78;63.19;101569.56;10376854;28;20081;-71
2023/11/17 01:54:48;;;;;;;1999.90;999.90;;;;;;;12.04;61.17;101563.03;10376456;28;20054;-71
2023/11/17 01:59:52;;;;;;;1999.90;999.90;;;;;;;11.53;63.83;101582.13;10377428;28;20049;-70
2023/11/17 02:04:54;;;;;;;1999.90;999.90;;;;;;;11.52;63.93;101580.41;10376005;28;20137;-71
2023/11/17 02:10:09;;;;;;;1999.90;999.90;;;;;;;12.25;61.24;101584.69;10377016;28;20049;-70
2023/11/17 02:15:16;;;;;;;1999.90;999.90;;;;;;;11.59;64.15;101582.75;10375380;28;20548;-70
2023/11/17 02:20:25;;;;;;;1999.90;999.90;;;;;;;11.59;64.75;101583.59;10358792;28;20045;-70
2023/11/17 02:25:44;;;;;;;1999.90;999.90;;;;;;;12.50;61.82;101576.38;10376365;28;20081;-71
2023/11/17 02:30:56;;;;;;;1999.90;999.90;;;;;;;11.69;63.55;101591.84;10374939;28;20088;-70
2023/11/17 02:36:03;;;;;;;1999.90;999.90;;;;;;;11.74;62.99;101592.47;10375822;28;20046;-70
2023/11/17 02:41:08;;;;;;;1999.90;999.90;;;;;;;11.97;62.37;101583.50;10375901;28;20050;-71
2023/11/17 02:46:12;;;;;;;1999.90;999.90;;;;;;;11.70;61.81;101580.41;10374827;28;20441;-70
2023/11/17 02:51:18;;;;;;;1999.90;999.90;;;;;;;11.64;63.07;101578.97;10375467;28;20121;-70
2023/11/17 02:56:21;;;;;;;1999.90;999.90;;;;;;;12.42;61.20;101573.28;10375390;28;20045;-70
2023/11/17 03:01:24;;;;;;;1999.90;999.90;;;;;;;12.08;62.03;101585.56;10373874;28;20056;-70
2023/11/17 03:06:29;;;;;;;1999.90;999.90;;;;;;;12.38;61.82;101579.66;10374467;28;20049;-70
2023/11/17 03:11:31;;;;;;;1999.90;999.90;;;;;;;11.45;64.62;101581.66;10374743;28;20046;-70
2023/11/17 03:16:33;;;;;;;1999.90;999.90;;;;;;;11.34;63.92;101583.94;10374868;28;20049;-70
2023/11/17 03:21:40;;;;;;;1999.90;999.90;;;;;;;11.68;63.66;101592.75;10374804;28;20053;-71
2023/11/17 03:26:44;;;;;;;1999.90;999.90;;;;;;;11.61;63.85;101594.84;10374749;28;20096;-70
2023/11/17 03:31:49;;;;;;;1999.90;999.90;;;;;;;11.94;61.73;101595.91;10373093;28;20072;-70
2023/11/17 03:37:00;;;;;;;1999.90;999.90;;;;;;;11.68;61.50;101598.88;10373003;28;20468;-70
2023/11/17 03:42:02;;;;;;;1999.90;999.90;;;;;;;12.05;62.57;101590.94;10373689;28;20054;-70
2023/11/17 03:47:08;;;;;;;1999.90;999.90;;;;;;;12.01;62.21;101598.13;10374433;28;20084;-70
2023/11/17 03:52:14;;;;;;;1999.90;999.90;;;;;;;12.15;62.10;101593.97;10374122;28;20124;-70
2023/11/17 03:57:19;;;;;;;1999.90;999.90;;;;;;;12.01;63.31;101598.13;10373068;28;20133;-70
2023/11/17 04:02:22;;;;;;;1999.90;999.90;;;;;;;11.92;64.10;101600.38;10372463;28;20518;-70
2023/11/17 04:07:25;;;;;;;1999.90;999.90;;;;;;;11.83;62.55;101602.50;10373587;28;20487;-70
2023/11/17 04:12:27;;;;;;;1999.90;999.90;;;;;;;11.64;65.16;101605.19;10373607;28;20116;-71
2023/11/17 04:17:30;;;;;;;1999.90;999.90;;;;;;;11.66;63.56;101620.84;10375018;28;20068;-70
2023/11/17 04:22:32;;;;;;;1999.90;999.90;;;;;;;12.36;62.45;101605.16;10380871;28;20057;-70
2023/11/17 04:27:36;;;;;;;1999.90;999.90;;;;;;;11.66;63.68;101620.84;10379857;28;20080;-70
2023/11/17 04:32:39;;;;;;;1999.90;999.90;;;;;;;11.85;64.42;101602.41;10363144;28;20050;-70
2023/11/17 04:37:42;;;;;;;1999.90;999.90;;;;;;;11.83;63.07;101610.38;10380407;28;20515;-70
2023/11/17 04:42:44;;;;;;;1999.90;999.90;;;;;;;12.14;62.70;101613.25;10380137;28;20405;-70
2023/11/17 04:47:48;;;;;;;1999.90;999.90;;;;;;;12.33;62.78;101600.06;10362651;28;20056;-71
2023/11/17 04:52:51;;;;;;;1999.90;999.90;;;;;;;11.93;62.81;101599.47;10378903;28;20049;-70
2023/11/17 04:57:54;;;;;;;1999.90;999.90;;;;;;;12.04;63.48;101607.66;10362223;28;20064;-71
2023/11/17 05:02:57;;;;;;;1999.90;999.90;;;;;;;12.21;62.42;101605.00;10379355;28;20077;-70
2023/11/17 05:08:00;;;;;;;1999.90;999.90;;;;;;;11.99;63.73;101601.78;10379459;28;20045;-70
2023/11/17 05:13:02;;;;;;;1999.90;999.90;;;;;;;11.94;63.75;101601.16;10379344;28;20413;-70
2023/11/17 05:18:05;;;;;;;1999.90;999.90;;;;;;;11.84;64.07;101616.47;10361699;28;20056;-70
2023/11/17 05:23:12;;;;;;;1999.90;999.90;;;;;;;11.96;63.76;101604.56;10377382;28;20054;-70
2023/11/17 05:28:14;;;;;;;1999.90;999.90;;;;;;;11.82;64.58;101621.81;10377241;28;20557;-70
2023/11/17 05:33:18;;;;;;;1999.90;999.90;;;;;;;11.67;65.64;101622.56;10377563;28;20562;-71
2023/11/17 05:38:21;;;;;;;1999.90;999.90;;;;;;;12.26;61.96;101612.66;10378053;28;20509;-70
2023/11/17 05:43:23;;;;;;;1999.90;999.90;;;;;;;12.08;63.57;101619.69;10377763;28;20564;-70
2023/11/17 05:48:26;;;;;;;1999.90;999.90;;;;;;;11.62;64.50;101625.41;10360285;28;20482;-70
2023/11/17 05:53:28;;;;;;;1999.90;999.90;;;;;;;12.36;62.85;101618.28;10376439;28;20118;-70
2023/11/17 05:58:31;;;;;;;1999.90;999.90;;;;;;;11.45;65.87;101623.59;10377628;28;20064;-70
2023/11/17 06:03:35;;;;;;;1999.90;999.90;;;;;;;11.97;64.87;101641.22;10376338;28;20050;-70
2023/11/17 06:08:38;;;;;;;1999.90;999.90;;;;;;;11.92;64.25;101634.47;10377387;28;20103;-70
2023/11/17 06:13:41;;;;;;;1999.90;999.90;;;;;;;12.01;63.47;101640.13;10376782;28;20531;-70
2023/11/17 06:18:45;;;;;;;1999.90;999.90;;;;;;;12.44;62.54;101626.63;10376558;28;20050;-70
2023/11/17 06:23:48;;;;;;;1999.90;999.90;;;;;;;12.21;63.30;101635.66;10350808;28;20133;-70
2023/11/17 06:28:51;;;;;;;1999.90;999.90;;;;;;;12.13;64.32;101651.78;10350866;28;20406;-71
2023/11/17 06:33:53;;;;;;;1999.90;999.90;;;;;;;11.98;65.29;101657.81;10335660;28;20137;-71
2023/11/17 06:38:56;;;;;;;1999.90;999.90;;;;;;;12.22;64.86;101659.22;10335337;28;20054;-71
2023/11/17 06:43:58;;;;;;;1999.90;999.90;;;;;;;11.98;63.88;101666.53;10349866;28;20042;-70
2023/11/17 06:49:01;;;;;;;1999.90;999.90;;;;;;;12.00;63.95;101672.56;10334847;28;20046;-70
2023/11/17 06:54:10;;;;;;;1999.90;999.90;;;;;;;12.45;64.26;101670.31;10335109;28;20081;-70
2023/11/17 06:59:14;;;;;;;1999.90;999.90;;;;;;;12.07;63.50;101691.50;10334573;28;20060;-70
2023/11/17 07:04:17;;;;;;;1999.90;999.90;;;;;;;12.42;63.57;101688.84;10349544;28;20057;-70
2023/11/17 07:09:22;;;;;;;1999.90;999.90;;;;;;;12.40;63.94;101691.56;10334387;28;20050;-70
2023/11/17 07:14:25;;;;;;;1999.90;999.90;;;;;;;12.39;64.18;101696.88;10349220;28;20060;-70
2023/11/17 07:19:27;;;;;;;1999.90;999.90;;;;;;;12.32;63.65;101687.63;10349188;28;20046;-70
2023/11/17 07:24:30;;;;;;;1999.90;999.90;;;;;;;12.50;63.68;101691.09;10367130;28;20564;-70
2023/11/17 07:29:34;;;;;;;1999.90;999.90;;;;;;;12.25;63.90;101698.44;10374556;28;20137;-70
2023/11/17 07:34:37;;;;;;;1999.90;999.90;;;;;;;12.83;62.28;101693.75;10373166;28;20050;-71
2023/11/17 07:39:39;;;;;;;1999.90;999.90;;;;;;;12.41;62.88;101700.31;10382454;22;20108;-71
2023/11/17 07:44:42;;;;;;;1999.90;999.90;;;;;;;12.41;63.54;101706.38;10356937;28;20057;-70
2023/11/17 07:49:44;;;;;;;1999.90;999.90;;;;;;;12.48;63.05;101716.59;10374284;28;20077;-70
2023/11/17 07:54:46;;;;;;;1999.90;999.90;;;;;;;12.84;61.98;101716.47;10380973;28;20050;-70
2023/11/17 07:59:49;;;;;;;1999.90;999.90;;;;;;;12.47;63.78;101726.22;10365091;28;20366;-70
2023/11/17 08:04:51;;;;;;;1999.90;999.90;;;;;;;12.56;63.76;101723.16;10382012;28;20133;-70
2023/11/17 08:09:54;;;;;;;1999.90;999.90;;;;;;;12.76;63.77;101726.50;10381655;28;20081;-71
2023/11/17 08:14:57;;;;;;;1999.90;999.90;;;;;;;12.73;63.76;101721.44;10348176;28;20054;-70
2023/11/17 08:20:00;;;;;;;1999.90;999.90;;;;;;;12.95;65.42;101742.19;10381186;28;20042;-70
2023/11/17 08:25:03;;;;;;;1999.90;999.90;;;;;;;13.54;63.67;101735.53;10380953;28;20531;-70
2023/11/17 08:30:07;;;;;;;1999.90;999.90;;;;;;;13.54;64.34;101748.69;10381368;28;20420;-70
2023/11/17 08:35:11;;;;;;;1999.90;999.90;;;;;;;14.50;62.06;101740.66;10380503;28;20108;-70
2023/11/17 08:40:18;;;;;;;1999.90;999.90;;;;;;;13.54;65.55;101758.38;10363927;28;20050;-70
2023/11/17 08:45:21;;;;;;;1999.90;999.90;;;;;;;13.46;64.83;101763.19;10363325;28;20050;-70
2023/11/17 08:50:23;;;;;;;1999.90;999.90;;;;;;;13.26;64.97;101758.97;10362880;28;20048;-70
2023/11/17 08:55:27;;;;;;;1999.90;999.90;;;;;;;12.98;65.80;101766.53;10379999;28;20057;-71
2023/11/17 09:00:31;;;;;;;1999.90;999.90;;;;;;;13.08;65.92;101776.56;10379526;28;20052;-70
2023/11/17 09:05:34;;;;;;;1999.90;999.90;;;;;;;13.00;66.47;101776.97;10345191;28;20394;-69
2023/11/17 09:10:37;;;;;;;1999.90;999.90;;;;;;;12.99;65.89;101784.03;10362138;28;20041;-70
2023/11/17 09:15:39;;;;;;;1999.90;999.90;;;;;;;12.97;65.85;101788.47;10362122;28;20489;-70
2023/11/17 09:20:43;;;;;;;1999.90;999.90;;;;;;;13.20;65.90;101787.28;10378794;28;20042;-70
2023/11/17 09:25:45;;;;;;;1999.90;999.90;;;;;;;12.55;66.39;101792.38;10378887;28;20052;-70
2023/11/17 09:30:47;;;;;;;1999.90;999.90;;;;;;;12.93;67.60;101791.38;10378652;28;20049;-70
2023/11/17 09:35:51;;;;;;;1999.90;999.90;;;;;;;12.94;67.63;101793.06;10378757;28;20089;-70
2023/11/17 09:40:57;;;;;;;1999.90;999.90;;;;;;;14.01;65.93;101801.44;10361264;28;20054;-70
2023/11/17 09:46:00;;;;;;;1999.90;999.90;;;;;;;13.94;66.50;101803.56;10360466;28;20519;-70
2023/11/17 09:51:03;;;;;;;1999.90;999.90;;;;;;;14.20;66.83;101802.06;10377960;28;20042;-70
2023/11/17 09:56:09;;;;;;;1999.90;999.90;;;;;;;15.77;63.30;101798.03;10360032;28;20485;-70
2023/11/17 10:01:11;;;;;;;1999.90;999.90;;;;;;;15.59;61.09;101804.44;10360645;28;20099;-70
2023/11/17 10:06:14;;;;;;;1999.90;999.90;;;;;;;15.02;64.21;101808.75;10360139;28;20497;-70
2023/11/17 10:11:18;;;;;;;1999.90;999.90;;;;;;;14.81;66.54;101825.84;10359444;28;20112;-69
2023/11/17 10:16:21;;;;;;;1999.90;999.90;;;;;;;14.80;66.14;101821.53;10359389;28;20476;-70
2023/11/17 10:21:24;;;;;;;1999.90;999.90;;;;;;;15.12;65.14;101826.66;10359329;28;20065;-70
2023/11/17 10:26:28;;;;;;;1999.90;999.90;;;;;;;15.15;65.59;101832.59;10359099;28;20050;-69
2023/11/17 10:31:37;;;;;;;1999.90;999.90;;;;;;;15.28;64.40;101824.81;10376095;28;20482;-70
2023/11/17 10:37:04;;;;;;;1999.90;999.90;;;;;;;14.15;66.31;101830.44;10376186;28;20081;-70
2023/11/17 10:42:18;;;;;;;1999.90;999.90;;;;;;;15.50;65.49;101829.63;10375590;28;20473;-70
2023/11/17 10:47:22;;;;;;;1999.90;999.90;;;;;;;15.34;65.51;101836.78;10375623;28;20405;-70
2023/11/17 10:52:27;;;;;;;1999.90;999.90;;;;;;;15.69;63.85;101837.22;10375311;28;20551;-70
2023/11/17 10:57:29;;;;;;;1999.90;999.90;;;;;;;14.99;66.33;101848.47;10375982;28;20060;-70
2023/11/17 11:02:32;;;;;;;1999.90;999.90;;;;;;;15.14;65.47;101848.53;10375394;28;20042;-70
2023/11/17 11:07:43;;;;;;;1999.90;999.90;;;;;;;15.04;66.01;101850.84;10375052;28;20053;-70
2023/11/17 11:12:47;;;;;;;1999.90;999.90;;;;;;;14.80;66.56;101850.53;10375253;28;20042;-70
2023/11/17 11:17:54;;;;;;;1999.90;999.90;;;;;;;15.21;65.56;101847.19;10357189;28;20061;-70
2023/11/17 11:22:57;;;;;;;1999.90;999.90;;;;;;;14.99;65.10;101851.13;10357414;28;20050;-70
2023/11/17 11:28:00;;;;;;;1999.90;999.90;;;;;;;15.15;64.30;101848.44;10374080;28;20050;-70
2023/11/17 11:33:02;;;;;;;1999.90;999.90;;;;;;;15.36;64.20;101859.47;10357444;28;20056;-70
2023/11/17 11:38:08;;;;;;;1999.90;999.90;;;;;;;14.85;65.60;101856.38;10374355;28;20081;-70
2023/11/17 11:43:11;;;;;;;1999.90;999.90;;;;;;;14.65;65.62;101868.91;10374237;28;20133;-70
2023/11/17 11:48:20;;;;;;;1999.90;999.90;;;;;;;14.90;65.68;101862.22;10356954;28;20145;-70
2023/11/17 11:53:33;;;;;;;1999.90;999.90;;;;;;;15.17;63.07;101870.28;10357248;28;20073;-70
2023/11/17 11:58:40;;;;;;;1999.90;999.90;;;;;;;14.56;65.46;101869.44;10356439;28;20413;-70
2023/11/17 12:03:57;;;;;;;1999.90;999.90;;;;;;;14.32;62.45;101884.81;10356411;28;20049;-70
2023/11/17 12:09:07;;;;;;;1999.90;999.90;;;;;;;14.35;64.73;101879.38;10356306;28;20386;-70
2023/11/17 12:14:10;;;;;;;1999.90;999.90;;;;;;;14.39;62.45;101872.16;10357202;28;20100;-70
2023/11/17 12:19:13;;;;;;;1999.90;999.90;;;;;;;13.87;61.17;101879.38;10373665;28;20050;-70
2023/11/17 12:24:23;;;;;;;1999.90;999.90;;;;;;;14.87;60.11;101886.13;10356076;28;20100;-70
2023/11/17 12:29:31;;;;;;;1999.90;999.90;;;;;;;14.92;59.54;101878.81;10373572;28;20056;-70
2023/11/17 12:34:39;;;;;;;1999.90;999.90;;;;;;;14.01;59.79;101883.88;10373194;28;20489;-70
2023/11/17 12:39:44;;;;;;;1999.90;999.90;;;;;;;14.25;60.08;101881.69;10376266;28;20062;-70
2023/11/17 12:44:48;;;;;;;1999.90;999.90;;;;;;;14.29;58.33;101887.66;10363331;28;20050;-70
2023/11/17 12:49:56;;;;;;;1999.90;999.90;;;;;;;14.54;58.45;101888.88;10380524;28;20080;-70
2023/11/17 12:55:07;;;;;;;1999.90;999.90;;;;;;;14.19;59.67;101895.22;10380355;28;20045;-70
2023/11/17 13:00:15;;;;;;;1999.90;999.90;;;;;;;14.57;58.66;101892.19;10362386;28;20136;-71
2023/11/17 13:05:18;;;;;;;1999.90;999.90;;;;;;;15.18;59.37;101887.81;10363180;28;20053;-70
2023/11/17 13:10:21;;;;;;;1999.90;999.90;;;;;;;15.28;58.70;101895.19;10362034;28;20129;-70
2023/11/17 13:15:26;;;;;;;1999.90;999.90;;;;;;;14.46;60.96;101894.59;10345903;28;20056;-71
2023/11/17 13:20:30;;;;;;;1999.90;999.90;;;;;;;14.49;61.44;101910.22;10378965;28;20053;-71
2023/11/17 13:25:34;;;;;;;1999.90;999.90;;;;;;;15.00;60.10;101915.28;10361526;28;20054;-71
2023/11/17 13:30:40;;;;;;;1999.90;999.90;;;;;;;14.94;60.30;101903.28;10378741;28;20057;-71
2023/11/17 13:35:43;;;;;;;1999.90;999.90;;;;;;;14.78;61.12;101905.13;10378518;28;20054;-71
2023/11/17 13:40:48;;;;;;;1999.90;999.90;;;;;;;14.57;62.39;101915.06;10360713;28;20477;-71
2023/11/17 13:45:51;;;;;;;1999.90;999.90;;;;;;;14.98;60.34;101919.81;10360637;28;20045;-66
2023/11/17 13:50:57;;;;;;;1999.90;999.90;;;;;;;15.01;60.72;101932.78;10360239;28;20049;-66
2023/11/17 13:55:59;;;;;;;1999.90;999.90;;;;;;;15.00;60.81;101941.66;10377601;28;20053;-65
2023/11/17 14:01:02;;;;;;;1999.90;999.90;;;;;;;14.38;63.38;101952.97;10360258;28;20050;-66
2023/11/17 14:06:05;;;;;;;1999.90;999.90;;;;;;;14.52;62.42;101941.66;10359942;28;20096;-66
2023/11/17 14:11:10;;;;;;;1999.90;999.90;;;;;;;14.83;61.30;101940.84;10359914;28;20096;-66
2023/11/17 14:16:13;;;;;;;1999.90;999.90;;;;;;;14.37;63.51;101947.78;10376710;28;20508;-71
2023/11/17 14:21:18;;;;;;;1999.90;999.90;;;;;;;14.23;64.14;101946.75;10359286;28;20054;-71
2023/11/17 14:26:22;;;;;;;1999.90;999.90;;;;;;;14.54;62.95;101946.84;10376540;28;20137;-71
2023/11/17 14:31:24;;;;;;;1999.90;999.90;;;;;;;13.99;64.23;101963.91;10376126;28;20412;-71
2023/11/17 14:36:28;;;;;;;1999.90;999.90;;;;;;;14.39;63.56;101962.59;10376128;28;20129;-71
2023/11/17 14:41:30;;;;;;;1999.90;999.90;;;;;;;14.24;62.42;101977.44;10376240;28;20072;-71
2023/11/17 14:46:33;;;;;;;1999.90;999.90;;;;;;;14.07;63.57;101981.00;10342318;28;20452;-71
2023/11/17 14:51:36;;;;;;;1999.90;999.90;;;;;;;13.80;64.31;101974.53;10358044;28;20413;-71
2023/11/17 14:56:40;;;;;;;1999.90;999.90;;;;;;;14.22;63.02;101987.22;10375791;28;20057;-70
2023/11/17 15:01:43;;;;;;;1999.90;999.90;;;;;;;14.18;62.63;101998.00;10374612;28;20104;-70
2023/11/17 15:06:50;;;;;;;1999.90;999.90;;;;;;;14.13;63.22;101995.59;10357764;28;20054;-70
2023/11/17 15:11:53;;;;;;;1999.90;999.90;;;;;;;14.32;62.65;102003.38;10374888;28;20412;-70
2023/11/17 15:16:57;;;;;;;1999.90;999.90;;;;;;;13.76;62.48;102008.06;10374899;28;20125;-70
2023/11/17 15:21:59;;;;;;;1999.90;999.90;;;;;;;13.30;64.57;102018.25;10374521;28;20077;-70
2023/11/17 15:27:02;;;;;;;1999.90;999.90;;;;;;;13.56;63.74;102024.88;10357058;28;20544;-70
2023/11/17 15:32:07;;;;;;;1999.90;999.90;;;;;;;13.93;62.72;102026.47;10374407;28;20108;-70
2023/11/17 15:37:11;;;;;;;1999.90;999.90;;;;;;;13.43;64.57;102034.31;10374683;28;20058;-70
2023/11/17 15:42:15;;;;;;;1999.90;999.90;;;;;;;13.36;65.67;102025.88;10373944;28;20409;-70
2023/11/17 15:47:17;;;;;;;1999.90;999.90;;;;;;;13.18;65.63;102019.72;10373948;28;20049;-70
2023/11/17 15:52:20;;;;;;;1999.90;999.90;;;;;;;13.13;65.35;102029.59;10356466;28;20401;-70
2023/11/17 15:57:23;;;;;;;1999.90;999.90;;;;;;;13.06;66.01;102044.81;10374383;28;20105;-70
2023/11/17 16:02:25;;;;;;;1999.90;999.90;;;;;;;13.27;63.95;102048.19;10373982;28;20473;-70
2023/11/17 16:07:28;;;;;;;1999.90;999.90;;;;;;;13.32;62.82;102048.00;10356474;28;20046;-70
2023/11/17 16:12:33;;;;;;;1999.90;999.90;;;;;;;12.97;62.62;102061.03;10375445;28;20409;-70
2023/11/17 16:17:41;;;;;;;1999.90;999.90;;;;;;;13.07;63.17;102058.81;10381327;28;20050;-70
2023/11/17 16:22:45;;;;;;;1999.90;999.90;;;;;;;13.04;62.96;102057.19;10380943;28;20108;-70
2023/11/17 16:27:48;;;;;;;1999.90;999.90;;;;;;;13.18;62.30;102070.53;10363556;28;20517;-70
2023/11/17 16:32:51;;;;;;;1999.90;999.90;;;;;;;12.92;63.16;102074.38;10380687;28;20046;-70
2023/11/17 16:37:54;;;;;;;1999.90;999.90;;;;;;;12.58;63.39;102088.25;10363286;28;20226;-70
2023/11/17 16:43:00;;;;;;;1999.90;999.90;;;;;;;12.71;63.57;102094.66;10380278;28;20050;-70
2023/11/17 16:48:04;;;;;;;1999.90;999.90;;;;;;;13.01;62.15;102081.84;10380488;28;20100;-70
2023/11/17 16:53:09;;;;;;;1999.90;999.90;;;;;;;12.77;62.93;102077.72;10380302;28;20382;-70
2023/11/17 16:58:13;;;;;;;1999.90;999.90;;;;;;;12.84;63.18;102102.78;10379821;28;20074;-71
2023/11/17 17:03:17;;;;;;;1999.90;999.90;;;;;;;12.41;62.76;102092.47;10362520;28;20046;-70
2023/11/17 17:08:24;;;;;;;1999.90;999.90;;;;;;;12.26;62.96;102091.38;10379396;28;20054;-70
2023/11/17 17:13:30;;;;;;;1999.90;999.90;;;;;;;12.31;62.47;102096.44;10362332;28;20128;-70
2023/11/17 17:18:33;;;;;;;1999.90;999.90;;;;;;;12.05;62.92;102089.66;10361790;28;20547;-70
2023/11/17 17:23:36;;;;;;;1999.90;999.90;;;;;;;11.96;62.88;102083.06;10378284;28;20378;-70
2023/11/17 17:28:38;;;;;;;1999.90;999.90;;;;;;;11.81;62.88;102099.41;10345459;28;20050;-70
2023/11/17 17:33:41;;;;;;;1999.90;999.90;;;;;;;11.94;62.37;102105.88;10378371;28;20050;-70
2023/11/17 17:38:46;;;;;;;1999.90;999.90;;;;;;;11.85;62.16;102100.97;10360985;28;20065;-70
2023/11/17 17:43:55;;;;;;;1999.90;999.90;;;;;;;11.76;62.02;102120.59;10361060;28;20477;-70
2023/11/17 17:48:59;;;;;;;1999.90;999.90;;;;;;;11.29;63.08;102118.13;10377991;28;20054;-70
2023/11/17 17:54:02;;;;;;;1999.90;999.90;;;;;;;11.72;61.85;102142.63;10377599;28;20050;-70
2023/11/17 17:59:04;;;;;;;1999.90;999.90;;;;;;;11.38;63.21;102145.75;10377606;28;20060;-70
2023/11/17 18:04:09;;;;;;;1999.90;999.90;;;;;;;11.69;63.78;102161.13;10377132;28;20124;-70
2023/11/17 18:09:12;;;;;;;1999.90;999.90;;;;;;;11.57;63.45;102153.75;10377051;28;20064;-70
2023/11/17 18:14:15;;;;;;;1999.90;999.90;;;;;;;11.57;63.89;102161.63;10359758;28;20049;-70
2023/11/17 18:19:17;;;;;;;1999.90;999.90;;;;;;;11.33;63.60;102157.28;10376634;28;20050;-70
2023/11/17 18:24:20;;;;;;;1999.90;999.90;;;;;;;11.58;63.16;102155.44;10376610;28;20050;-70
2023/11/17 18:29:23;;;;;;;1999.90;999.90;;;;;;;11.79;62.09;102156.38;10376276;28;20050;-71
2023/11/17 18:34:25;;;;;;;1999.90;999.90;;;;;;;11.30;62.72;102161.78;10358992;28;20488;-70
2023/11/17 18:39:30;;;;;;;1999.90;999.90;;;;;;;11.11;63.91;102161.63;10375224;28;20079;-70
2023/11/17 18:44:33;;;;;;;1999.90;999.90;;;;;;;11.22;63.10;102159.44;10375874;28;20041;-70
2023/11/17 18:49:36;;;;;;;1999.90;999.90;;;;;;;11.37;62.71;102176.38;10375706;28;20131;-71
2023/11/17 18:54:39;;;;;;;1999.90;999.90;;;;;;;11.47;63.66;102187.34;10375518;28;20049;-71
2023/11/17 18:59:41;;;;;;;1999.90;999.90;;;;;;;11.16;63.46;102188.50;10358280;28;20049;-71
2023/11/17 19:04:43;;;;;;;1999.90;999.90;;;;;;;11.43;63.35;102181.38;10357631;28;20046;-70
2023/11/17 19:09:46;;;;;;;1999.90;999.90;;;;;;;11.32;63.62;102194.03;10374987;28;20537;-70
2023/11/17 19:14:49;;;;;;;1999.90;999.90;;;;;;;11.22;64.60;102188.28;10374978;28;20052;-70
2023/11/17 19:19:51;;;;;;;1999.90;999.90;;;;;;;11.14;64.33;102204.28;10357721;28;20082;-70
2023/11/17 19:24:55;;;;;;;1999.90;999.90;;;;;;;10.89;64.07;102203.50;10375332;28;20052;-70
2023/11/17 19:29:57;;;;;;;1999.90;999.90;;;;;;;11.33;63.52;102201.84;10357999;28;20050;-71
2023/11/17 19:34:59;;;;;;;1999.90;999.90;;;;;;;11.03;63.65;102202.97;10374441;28;20056;-70
2023/11/17 19:40:07;;;;;;;1999.90;999.90;;;;;;;11.11;63.78;102204.44;10374378;28;20061;-71
2023/11/17 19:45:10;;;;;;;1999.90;999.90;;;;;;;11.15;63.67;102219.13;10357542;28;20049;-70
2023/11/17 19:55:22;;;;;;;1999.90;999.90;;;;;;;11.16;63.50;102212.09;10300002;28;20054;-77
2023/11/17 20:00:25;;;;;;;1999.90;999.90;;;;;;;10.55;63.21;102212.56;10301954;28;20051;-77
2023/11/17 20:05:28;;;;;;;1999.90;999.90;;;;;;;10.90;63.90;102206.06;10301282;28;20102;-77
2023/11/17 20:10:31;;;;;;;1999.90;999.90;;;;;;;10.82;63.61;102213.34;10300946;28;20409;-76
2023/11/17 20:15:34;;;;;;;1999.90;999.90;;;;;;;10.86;63.07;102224.56;10301126;28;20098;-77
2023/11/17 20:20:36;;;;;;;1999.90;999.90;;;;;;;10.80;63.04;102232.66;10300853;28;20051;-76
2023/11/17 20:25:41;;;;;;;1999.90;999.90;;;;;;;11.06;62.84;102242.19;10299825;28;20057;-77
2023/11/17 20:30:47;;;;;;;1999.90;999.90;;;;;;;10.75;64.39;102243.28;10299105;28;20089;-77
2023/11/17 20:35:49;;;;;;;1999.90;999.90;;;;;;;10.98;63.98;102239.88;10299263;28;20078;-76
2023/11/17 20:40:51;;;;;;;1999.90;999.90;;;;;;;11.45;62.39;102237.25;10299862;28;20078;-76
2023/11/17 20:45:59;;;;;;;1999.90;999.90;;;;;;;10.90;63.94;102244.53;10298996;28;20102;-76
2023/11/17 20:51:04;;;;;;;1999.90;999.90;;;;;;;11.19;62.82;102253.09;10299200;28;20054;-76
2023/11/17 20:56:07;;;;;;;1999.90;999.90;;;;;;;11.20;63.43;102236.47;10282486;28;20050;-76
2023/11/17 21:01:14;;;;;;;1999.90;999.90;;;;;;;11.01;62.94;102237.13;10297922;28;20061;-76
2023/11/17 21:06:20;;;;;;;1999.90;999.90;;;;;;;10.82;62.90;102242.16;10299086;28;20070;-76
2023/11/17 21:11:23;;;;;;;1999.90;999.90;;;;;;;10.68;63.90;102239.19;10297860;28;20137;-76
2023/11/17 21:16:26;;;;;;;1999.90;999.90;;;;;;;10.66;64.06;102239.22;10298588;28;20051;-76
2023/11/17 21:21:29;;;;;;;1999.90;999.90;;;;;;;10.70;64.73;102240.81;10298695;28;20050;-76
2023/11/17 21:26:31;;;;;;;1999.90;999.90;;;;;;;10.70;65.60;102246.06;10297188;28;20050;-76
2023/11/17 21:31:36;;;;;;;1999.90;999.90;;;;;;;11.07;63.17;102243.91;10298072;28;20401;-76
2023/11/17 21:36:39;;;;;;;1999.90;999.90;;;;;;;11.02;63.94;102248.47;10297183;28;20134;-76
2023/11/17 21:41:41;;;;;;;1999.90;999.90;;;;;;;11.22;63.36;102255.59;10297795;28;20061;-76
2023/11/17 21:46:44;;;;;;;1999.90;999.90;;;;;;;11.42;63.31;102257.50;10297492;28;20535;-76
2023/11/17 21:51:46;;;;;;;1999.90;999.90;;;;;;;11.57;63.70;102263.91;10295867;28;20480;-76
2023/11/17 21:56:49;;;;;;;1999.90;999.90;;;;;;;11.77;63.86;102264.00;10297526;28;20129;-76
2023/11/17 22:01:53;;;;;;;1999.90;999.90;;;;;;;12.04;63.60;102259.47;10296494;28;20050;-76
2023/11/17 22:06:58;;;;;;;1999.90;999.90;;;;;;;12.06;64.25;102248.91;10296204;28;20109;-76